Time;durP1;ratioP1;P1;durP2;ratioP2;P2;SDS_P1;SDS_P2;PMS_P1;PMS_P2;Temp;Humidity;BMP_temperature;BMP_pressure;BME280_temperature;BME280_humidity;BME280_pressure;Samples;Min_cycle;Max_cycle;Signal;HPM_P1;HPM_P2
2021/08/28 00:02:23;;;;;;;2.58;1.80;;;16.00;99.90;;;;;;5032023;28;20071;-64
2021/08/28 00:04:49;;;;;;;2.78;1.95;;;16.00;99.90;;;;;;5033662;28;20496;-64
2021/08/28 00:07:14;;;;;;;4.45;2.33;;;16.00;99.90;;;;;;5035652;28;20056;-64
2021/08/28 00:09:40;;;;;;;4.40;2.40;;;16.00;99.90;;;;;;5015501;28;20026;-64
2021/08/28 00:12:05;;;;;;;3.10;2.30;;;16.00;99.90;;;;;;5024039;28;20025;-64
2021/08/28 00:14:31;;;;;;;4.82;2.60;;;16.00;99.90;;;;;;5032339;28;20030;-64
2021/08/28 00:16:57;;;;;;;3.70;2.47;;;16.00;99.90;;;;;;5031972;28;20076;-64
2021/08/28 00:19:22;;;;;;;14.93;4.05;;;15.90;99.90;;;;;;5033476;28;20028;-64
2021/08/28 00:21:48;;;;;;;2.90;2.15;;;16.00;99.90;;;;;;5033313;28;20033;-64
2021/08/28 00:24:13;;;;;;;3.45;2.45;;;15.90;99.90;;;;;;5036001;28;20060;-64
2021/08/28 00:26:39;;;;;;;3.10;2.28;;;15.90;99.90;;;;;;5028216;28;20037;-64
2021/08/28 00:29:05;;;;;;;4.63;2.53;;;15.90;99.90;;;;;;5031600;28;20041;-64
2021/08/28 00:31:31;;;;;;;5.55;2.72;;;15.90;99.90;;;;;;5032718;28;20029;-63
2021/08/28 00:33:57;;;;;;;3.08;2.40;;;15.90;99.90;;;;;;5035521;28;20053;-64
2021/08/28 00:36:22;;;;;;;2.70;2.03;;;15.90;99.90;;;;;;5033632;28;20504;-64
2021/08/28 00:38:48;;;;;;;4.55;3.00;;;15.90;99.90;;;;;;5037629;28;20485;-63
2021/08/28 00:41:14;;;;;;;2.97;2.50;;;16.00;99.90;;;;;;5014857;28;20568;-64
2021/08/28 00:43:39;;;;;;;4.25;2.58;;;15.90;99.90;;;;;;5029246;28;20025;-64
2021/08/28 00:46:05;;;;;;;4.35;2.47;;;15.90;99.90;;;;;;5032745;28;20104;-64
2021/08/28 00:48:30;;;;;;;3.45;2.55;;;15.90;99.90;;;;;;5044001;28;20052;-64
2021/08/28 00:50:56;;;;;;;4.75;3.30;;;15.90;99.90;;;;;;5052491;28;20028;-64
2021/08/28 00:53:21;;;;;;;4.10;2.78;;;15.90;99.90;;;;;;5035131;28;20037;-64
2021/08/28 00:55:52;;;;;;;4.10;2.65;;;15.90;99.90;;;;;;5028598;28;20030;-63
2021/08/28 00:58:19;;;;;;;4.18;2.80;;;15.90;99.90;;;;;;5026060;28;20121;-63
2021/08/28 01:00:47;;;;;;;5.28;3.38;;;15.90;99.90;;;;;;5032395;28;20091;-63
2021/08/28 01:03:17;;;;;;;4.95;3.30;;;16.00;99.90;;;;;;5029857;28;20113;-63
2021/08/28 01:05:50;;;;;;;4.35;3.08;;;16.00;99.90;;;;;;5032405;28;20021;-63
2021/08/28 01:08:38;;;;;;;5.07;3.28;;;16.00;99.90;;;;;;5030255;28;20037;-64
2021/08/28 01:11:18;;;;;;;4.63;3.33;;;16.00;99.90;;;;;;5023283;28;20037;-64
2021/08/28 01:13:47;;;;;;;5.80;3.53;;;15.90;99.90;;;;;;5034898;28;20306;-64
2021/08/28 01:16:16;;;;;;;5.18;3.45;;;15.90;99.90;;;;;;5031652;28;20068;-65
2021/08/28 01:18:44;;;;;;;4.70;3.63;;;15.90;99.90;;;;;;5031054;28;20029;-64
2021/08/28 01:21:18;;;;;;;6.28;3.78;;;15.90;99.90;;;;;;5032020;28;20029;-64
2021/08/28 01:23:45;;;;;;;5.60;3.92;;;15.90;99.90;;;;;;5030074;28;20029;-65
2021/08/28 01:26:15;;;;;;;6.68;4.40;;;15.90;99.90;;;;;;5014233;28;20041;-65
2021/08/28 01:28:49;;;;;;;4.45;3.65;;;15.90;99.90;;;;;;5030745;28;20029;-65
2021/08/28 01:31:16;;;;;;;6.10;3.90;;;15.90;99.90;;;;;;5032000;28;20029;-65
2021/08/28 01:33:42;;;;;;;5.38;4.07;;;15.90;99.90;;;;;;5030625;28;20037;-65
2021/08/28 01:36:10;;;;;;;6.10;3.95;;;15.90;99.90;;;;;;5029680;28;20122;-65
2021/08/28 01:38:37;;;;;;;4.65;3.65;;;16.00;99.90;;;;;;5026470;28;20510;-65
2021/08/28 01:41:04;;;;;;;5.18;3.92;;;16.00;99.90;;;;;;5027602;28;20029;-64
2021/08/28 01:43:29;;;;;;;7.72;3.90;;;16.00;99.90;;;;;;5040847;28;20032;-64
2021/08/28 01:45:56;;;;;;;6.18;4.22;;;16.00;99.90;;;;;;5039239;28;20033;-64
2021/08/28 01:48:22;;;;;;;4.38;3.75;;;16.00;99.90;;;;;;5051864;28;20063;-64
2021/08/28 01:50:48;;;;;;;5.50;3.85;;;16.00;99.90;;;;;;5035108;28;20064;-65
2021/08/28 01:53:14;;;;;;;4.22;3.40;;;16.00;99.90;;;;;;5051057;28;20110;-64
2021/08/28 01:55:42;;;;;;;5.95;3.92;;;16.00;99.90;;;;;;5026720;28;20041;-64
2021/08/28 01:58:08;;;;;;;6.85;4.63;;;16.00;99.90;;;;;;5030652;28;20087;-64
2021/08/28 02:00:34;;;;;;;7.22;4.10;;;16.00;99.90;;;;;;5035827;28;20489;-64
2021/08/28 02:02:59;;;;;;;4.60;3.92;;;16.00;99.90;;;;;;5043211;28;20021;-64
2021/08/28 02:05:27;;;;;;;5.28;4.10;;;16.00;99.90;;;;;;5030196;28;20526;-66
2021/08/28 02:07:58;;;;;;;7.05;4.70;;;16.00;99.90;;;;;;5031421;28;20466;-64
2021/08/28 02:10:34;;;;;;;5.97;4.18;;;16.00;99.90;;;;;;5035470;28;20048;-64
2021/08/28 02:13:09;;;;;;;7.13;4.63;;;16.00;99.90;;;;;;5028870;28;20026;-64
2021/08/28 02:15:46;;;;;;;6.70;4.80;;;16.00;99.90;;;;;;5029789;28;20084;-63
2021/08/28 02:18:19;;;;;;;5.97;5.13;;;16.00;99.90;;;;;;5029314;28;20029;-65
2021/08/28 02:20:49;;;;;;;6.53;4.75;;;16.00;99.90;;;;;;5033133;28;20060;-64
2021/08/28 02:23:23;;;;;;;6.10;4.85;;;16.00;99.90;;;;;;5031448;28;20030;-64
2021/08/28 02:25:57;;;;;;;8.20;5.32;;;16.00;99.90;;;;;;5029189;28;20112;-64
2021/08/28 02:28:32;;;;;;;6.75;4.78;;;16.00;99.90;;;;;;5031128;28;20024;-64
2021/08/28 02:31:00;;;;;;;7.03;5.00;;;16.00;99.90;;;;;;5039370;28;20033;-64
2021/08/28 02:33:26;;;;;;;7.78;5.20;;;16.00;99.90;;;;;;5051071;28;20374;-64
2021/08/28 02:35:53;;;;;;;7.10;4.97;;;15.90;99.90;;;;;;5033736;28;20037;-64
2021/08/28 02:38:19;;;;;;;7.18;5.30;;;15.90;99.90;;;;;;5032723;28;20022;-64
2021/08/28 02:40:47;;;;;;;6.40;5.18;;;15.90;99.90;;;;;;5037544;28;20038;-64
2021/08/28 02:43:15;;;;;;;9.18;5.68;;;15.90;99.90;;;;;;5049924;28;20445;-64
2021/08/28 02:45:41;;;;;;;8.90;5.57;;;16.00;99.90;;;;;;5026093;28;20148;-64
2021/08/28 02:48:08;;;;;;;8.25;5.78;;;15.90;99.90;;;;;;5032999;28;20026;-64
2021/08/28 02:50:35;;;;;;;7.18;5.25;;;15.90;99.90;;;;;;5035909;28;20478;-64
2021/08/28 02:53:01;;;;;;;8.73;5.55;;;15.90;99.90;;;;;;5034262;28;20441;-64
2021/08/28 02:55:31;;;;;;;7.57;5.63;;;15.90;99.90;;;;;;5030282;28;20045;-64
2021/08/28 02:57:59;;;;;;;7.75;5.95;;;15.90;99.90;;;;;;5030635;28;20033;-64
2021/08/28 03:00:24;;;;;;;8.40;5.63;;;15.90;99.90;;;;;;5033132;28;20370;-64
2021/08/28 03:02:50;;;;;;;6.78;5.05;;;15.90;99.90;;;;;;5045347;28;20040;-65
2021/08/28 03:05:17;;;;;;;8.18;6.18;;;15.90;99.90;;;;;;5045520;28;20033;-65
2021/08/28 03:07:42;;;;;;;7.05;5.22;;;15.90;99.90;;;;;;5037230;28;20124;-65
2021/08/28 03:10:09;;;;;;;10.55;6.13;;;15.90;99.90;;;;;;5033291;28;20108;-65
2021/08/28 03:12:36;;;;;;;9.27;6.20;;;15.90;99.90;;;;;;5033933;28;20033;-64
2021/08/28 03:15:03;;;;;;;8.20;6.30;;;15.90;99.90;;;;;;5031807;28;20120;-64
2021/08/28 03:17:29;;;;;;;10.48;6.47;;;15.90;99.90;;;;;;5023428;28;20074;-65
2021/08/28 03:19:57;;;;;;;9.32;6.38;;;15.90;99.90;;;;;;5017759;28;20033;-65
2021/08/28 03:22:23;;;;;;;9.48;6.25;;;15.80;99.90;;;;;;5034603;28;20030;-64
2021/08/28 03:24:51;;;;;;;10.18;6.57;;;15.80;99.90;;;;;;5032494;28;20027;-64
2021/08/28 03:27:20;;;;;;;8.52;6.68;;;15.80;99.90;;;;;;5024523;28;20032;-64
2021/08/28 03:29:47;;;;;;;8.80;6.50;;;15.80;99.90;;;;;;5031633;28;20112;-65
2021/08/28 03:32:15;;;;;;;9.05;6.70;;;15.80;99.90;;;;;;5052755;28;20029;-65
2021/08/28 03:34:41;;;;;;;8.18;6.45;;;15.70;99.90;;;;;;5036007;28;20022;-65
2021/08/28 03:37:07;;;;;;;8.85;6.13;;;15.80;99.90;;;;;;5041123;28;20083;-65
2021/08/28 03:39:33;;;;;;;8.40;5.82;;;15.70;99.90;;;;;;5033318;28;20029;-65
2021/08/28 03:41:58;;;;;;;9.05;6.93;;;15.80;99.90;;;;;;5050702;28;20409;-65
2021/08/28 03:44:24;;;;;;;8.48;6.30;;;15.70;99.90;;;;;;5042567;28;20018;-65
2021/08/28 03:46:50;;;;;;;8.50;6.38;;;15.70;99.90;;;;;;5038896;28;20477;-65
2021/08/28 03:49:16;;;;;;;8.18;6.95;;;15.60;99.90;;;;;;5053982;28;20104;-64
2021/08/28 03:51:42;;;;;;;7.93;5.95;;;15.60;99.90;;;;;;5032202;28;20417;-65
2021/08/28 03:54:08;;;;;;;10.70;7.32;;;15.60;99.90;;;;;;5033638;28;20056;-65
2021/08/28 03:56:33;;;;;;;8.68;6.15;;;15.70;99.90;;;;;;5025271;28;20089;-64
2021/08/28 03:58:59;;;;;;;10.02;6.45;;;15.70;99.90;;;;;;5013969;28;20474;-64
2021/08/28 04:01:24;;;;;;;10.38;6.07;;;15.70;99.90;;;;;;5039574;28;20033;-64
2021/08/28 04:03:50;;;;;;;8.80;6.00;;;15.70;99.90;;;;;;5035421;28;20052;-64
2021/08/28 04:06:15;;;;;;;7.60;6.13;;;15.70;99.90;;;;;;5044192;28;20024;-65
2021/08/28 04:08:41;;;;;;;13.40;6.35;;;15.70;99.90;;;;;;5053729;28;20469;-65
2021/08/28 04:11:06;;;;;;;7.30;5.70;;;15.70;99.90;;;;;;5038619;28;20163;-65
2021/08/28 04:13:32;;;;;;;9.75;6.22;;;15.70;99.90;;;;;;5033673;28;20022;-65
2021/08/28 04:15:57;;;;;;;7.85;5.68;;;15.70;99.90;;;;;;5041096;28;20041;-65
2021/08/28 04:18:23;;;;;;;8.48;6.22;;;15.80;99.90;;;;;;5035398;28;20068;-65
2021/08/28 04:20:48;;;;;;;10.15;6.05;;;15.70;99.90;;;;;;5031168;28;20033;-65
2021/08/28 04:23:14;;;;;;;10.18;7.00;;;15.70;99.90;;;;;;5033505;28;20022;-65
2021/08/28 04:25:39;;;;;;;10.35;6.65;;;15.70;99.90;;;;;;5038513;28;20036;-65
2021/08/28 04:28:05;;;;;;;8.63;5.53;;;15.70;99.90;;;;;;5034086;28;20482;-65
2021/08/28 04:30:32;;;;;;;10.73;6.72;;;15.70;99.90;;;;;;5036876;28;20047;-65
2021/08/28 04:32:58;;;;;;;8.43;6.20;;;15.70;99.90;;;;;;5053561;28;20021;-65
2021/08/28 04:35:23;;;;;;;7.82;6.10;;;15.80;99.90;;;;;;5044212;28;20059;-65
2021/08/28 04:37:49;;;;;;;10.88;6.60;;;15.70;99.90;;;;;;5032066;28;20025;-65
2021/08/28 04:40:14;;;;;;;8.02;6.18;;;15.80;99.90;;;;;;5031595;28;20025;-67
2021/08/28 04:42:40;;;;;;;9.80;6.95;;;15.80;99.90;;;;;;5032727;28;20021;-65
2021/08/28 04:45:07;;;;;;;10.65;6.47;;;15.80;99.90;;;;;;5029662;28;20020;-67
2021/08/28 04:47:32;;;;;;;10.73;6.60;;;15.90;99.90;;;;;;5030435;28;20075;-67
2021/08/28 04:49:58;;;;;;;7.82;5.88;;;15.80;99.90;;;;;;5032035;28;20026;-67
2021/08/28 04:52:23;;;;;;;8.48;5.93;;;15.80;99.90;;;;;;5048118;28;20025;-68
2021/08/28 04:54:49;;;;;;;9.80;6.25;;;15.90;99.90;;;;;;5032021;28;20029;-68
2021/08/28 04:57:14;;;;;;;9.68;6.65;;;15.90;99.90;;;;;;5032020;28;20041;-68
2021/08/28 04:59:40;;;;;;;10.38;6.57;;;15.90;99.90;;;;;;5032001;28;20028;-70
2021/08/28 05:02:05;;;;;;;7.97;5.75;;;15.90;99.90;;;;;;5030832;28;20035;-70
2021/08/28 05:04:31;;;;;;;7.93;5.38;;;15.90;99.90;;;;;;5012784;28;20552;-69
2021/08/28 05:06:57;;;;;;;8.55;6.07;;;15.80;99.90;;;;;;5031043;28;20030;-69
2021/08/28 05:09:22;;;;;;;9.98;5.80;;;15.90;99.90;;;;;;5040571;28;20135;-69
2021/08/28 05:11:48;;;;;;;8.63;6.13;;;15.90;99.90;;;;;;5027861;28;20021;-69
2021/08/28 05:14:14;;;;;;;7.63;5.20;;;15.80;99.90;;;;;;5048246;28;20040;-68
2021/08/28 05:16:39;;;;;;;7.97;5.30;;;15.90;99.90;;;;;;5046737;28;20103;-69
2021/08/28 05:19:05;;;;;;;8.27;5.65;;;15.90;99.90;;;;;;5030244;28;20029;-69
2021/08/28 05:21:31;;;;;;;7.82;5.55;;;15.90;99.90;;;;;;5045188;28;20036;-69
2021/08/28 05:23:57;;;;;;;9.35;5.80;;;15.90;99.90;;;;;;5033266;28;20470;-69
2021/08/28 05:26:22;;;;;;;7.43;5.25;;;15.90;99.90;;;;;;5030351;28;20065;-70
2021/08/28 05:28:48;;;;;;;7.80;5.30;;;15.90;99.90;;;;;;5036641;28;20430;-69
2021/08/28 05:31:13;;;;;;;6.97;4.97;;;15.80;99.90;;;;;;5037239;28;20056;-69
2021/08/28 05:33:39;;;;;;;8.18;5.25;;;15.90;99.90;;;;;;5030397;28;20088;-69
2021/08/28 05:36:04;;;;;;;8.02;4.70;;;15.90;99.90;;;;;;5029956;28;20052;-68
2021/08/28 05:38:30;;;;;;;9.32;5.43;;;15.90;99.90;;;;;;5031887;28;20029;-68
2021/08/28 05:40:57;;;;;;;6.95;4.88;;;15.90;99.90;;;;;;5030650;28;20061;-68
2021/08/28 05:43:22;;;;;;;7.22;4.70;;;15.90;99.90;;;;;;5031072;28;20121;-68
2021/08/28 05:45:48;;;;;;;6.40;4.65;;;15.90;99.90;;;;;;5028551;28;20127;-68
2021/08/28 05:48:13;;;;;;;8.80;5.43;;;15.90;99.90;;;;;;5031559;28;20029;-68
2021/08/28 05:50:39;;;;;;;9.30;5.85;;;16.00;99.90;;;;;;5025904;28;20030;-68
2021/08/28 05:53:04;;;;;;;7.85;5.22;;;16.00;99.90;;;;;;5022558;28;20041;-68
2021/08/28 05:55:30;;;;;;;9.48;5.05;;;16.00;99.90;;;;;;5028803;28;20043;-68
2021/08/28 05:57:56;;;;;;;6.50;4.78;;;16.00;99.90;;;;;;5045761;28;20039;-68
2021/08/28 06:00:21;;;;;;;7.35;4.93;;;16.00;99.90;;;;;;5031254;28;20017;-68
2021/08/28 06:02:47;;;;;;;9.82;5.10;;;16.00;99.90;;;;;;5030040;28;20029;-69
2021/08/28 06:05:14;;;;;;;7.93;5.22;;;16.00;99.90;;;;;;5029254;28;20091;-68
2021/08/28 06:07:39;;;;;;;11.00;5.47;;;16.10;99.90;;;;;;5031128;28;20017;-68
2021/08/28 06:10:06;;;;;;;8.77;4.82;;;16.00;99.90;;;;;;5030317;28;20390;-68
2021/08/28 06:12:33;;;;;;;7.78;5.40;;;16.00;99.90;;;;;;5031217;28;20377;-68
2021/08/28 06:14:59;;;;;;;6.28;4.50;;;16.00;99.90;;;;;;5029437;28;20041;-69
2021/08/28 06:17:24;;;;;;;7.63;4.35;;;16.10;99.90;;;;;;5012283;28;20520;-68
2021/08/28 06:19:50;;;;;;;7.03;4.78;;;16.00;99.90;;;;;;5026997;28;20056;-68
2021/08/28 06:22:16;;;;;;;6.85;4.68;;;16.10;99.90;;;;;;5030238;28;20028;-68
2021/08/28 06:24:42;;;;;;;6.65;4.30;;;16.10;99.90;;;;;;5049885;28;20029;-68
2021/08/28 06:27:08;;;;;;;7.30;4.53;;;16.10;99.90;;;;;;5022876;28;20112;-68
2021/08/28 06:29:35;;;;;;;7.05;4.57;;;16.00;99.90;;;;;;5029967;28;20034;-69
2021/08/28 06:32:00;;;;;;;6.90;4.32;;;16.00;99.90;;;;;;5015381;28;20128;-68
2021/08/28 06:34:26;;;;;;;8.05;4.40;;;16.10;99.90;;;;;;5012136;28;20053;-67
2021/08/28 06:36:52;;;;;;;7.53;4.47;;;16.10;99.90;;;;;;5034072;28;20040;-68
2021/08/28 06:39:17;;;;;;;6.00;4.20;;;16.00;99.90;;;;;;5051164;28;20428;-68
2021/08/28 06:41:42;;;;;;;6.53;4.20;;;16.00;99.90;;;;;;5032455;28;20065;-68
2021/08/28 06:44:08;;;;;;;6.38;4.60;;;16.00;99.90;;;;;;5032868;28;20033;-68
2021/08/28 06:46:33;;;;;;;6.03;4.28;;;16.10;99.90;;;;;;5033988;28;20497;-68
2021/08/28 06:48:59;;;;;;;5.75;3.90;;;16.10;99.90;;;;;;5035275;28;20022;-67
2021/08/28 06:51:25;;;;;;;5.38;3.95;;;16.10;99.90;;;;;;5035163;28;20026;-68
2021/08/28 06:53:50;;;;;;;5.03;3.80;;;16.10;99.90;;;;;;5034146;28;20057;-67
2021/08/28 06:56:17;;;;;;;5.72;3.90;;;16.10;99.90;;;;;;5032931;28;20029;-68
2021/08/28 06:58:42;;;;;;;7.32;3.92;;;16.10;99.90;;;;;;5034840;28;20025;-70
2021/08/28 07:01:08;;;;;;;5.10;3.22;;;16.10;99.90;;;;;;5030692;28;20040;-69
2021/08/28 07:03:33;;;;;;;5.97;3.47;;;16.10;99.90;;;;;;5035281;28;20729;-68
2021/08/28 07:05:59;;;;;;;6.43;3.50;;;16.10;99.90;;;;;;5038024;28;20108;-68
2021/08/28 07:08:25;;;;;;;4.90;3.38;;;16.20;99.90;;;;;;5043811;28;20029;-68
2021/08/28 07:10:50;;;;;;;5.05;3.80;;;16.10;99.90;;;;;;5032927;28;20033;-68
2021/08/28 07:13:16;;;;;;;5.97;3.97;;;16.10;99.90;;;;;;5037054;28;20032;-68
2021/08/28 07:15:41;;;;;;;8.25;4.53;;;16.10;99.90;;;;;;5042170;28;20036;-69
2021/08/28 07:18:09;;;;;;;5.00;2.88;;;16.10;99.90;;;;;;5044762;28;20029;-70
2021/08/28 07:20:35;;;;;;;6.65;4.32;;;16.10;99.90;;;;;;5044294;28;20430;-77
2021/08/28 07:23:00;;;;;;;6.75;3.53;;;16.20;99.90;;;;;;5046766;28;20059;-76
2021/08/28 07:25:26;;;;;;;5.82;3.70;;;16.30;99.90;;;;;;5040023;28;20030;-72
2021/08/28 07:27:52;;;;;;;6.18;3.53;;;16.30;99.90;;;;;;5033816;28;20122;-78
2021/08/28 07:30:18;;;;;;;5.50;3.70;;;16.30;99.90;;;;;;5035296;28;20025;-76
2021/08/28 07:32:44;;;;;;;6.20;3.90;;;16.40;99.90;;;;;;5033653;28;20044;-72
2021/08/28 07:35:10;;;;;;;6.10;3.65;;;16.40;99.90;;;;;;5036688;28;20033;-71
2021/08/28 07:37:35;;;;;;;5.32;3.20;;;16.50;99.90;;;;;;5034943;28;20033;-75
2021/08/28 07:40:02;;;;;;;5.05;3.38;;;16.50;99.90;;;;;;5048163;28;20024;-73
2021/08/28 07:42:27;;;;;;;4.93;3.40;;;16.50;99.90;;;;;;5035780;28;20033;-72
2021/08/28 07:44:53;;;;;;;6.63;3.58;;;16.50;99.90;;;;;;5033439;28;20021;-74
2021/08/28 07:47:18;;;;;;;6.47;4.78;;;16.50;99.90;;;;;;5040753;28;20056;-75
2021/08/28 07:49:44;;;;;;;5.68;4.10;;;16.50;99.90;;;;;;5029676;28;20036;-74
2021/08/28 07:52:14;;;;;;;6.00;3.47;;;16.60;99.90;;;;;;5034095;28;20041;-75
2021/08/28 07:54:39;;;;;;;4.05;2.88;;;16.60;99.90;;;;;;5029953;28;20072;-76
2021/08/28 07:57:05;;;;;;;4.78;3.25;;;16.60;99.90;;;;;;5030557;28;20477;-76
2021/08/28 07:59:31;;;;;;;4.95;3.30;;;16.60;99.90;;;;;;5053621;28;20036;-75
2021/08/28 08:01:56;;;;;;;5.75;3.40;;;16.60;99.90;;;;;;5050400;28;20021;-75
2021/08/28 08:04:22;;;;;;;4.63;3.28;;;16.60;99.90;;;;;;5030247;28;20111;-74
2021/08/28 08:06:47;;;;;;;6.55;3.60;;;16.60;99.90;;;;;;5032525;28;20029;-74
2021/08/28 08:09:14;;;;;;;4.28;2.78;;;16.70;99.90;;;;;;5031944;28;20405;-75
2021/08/28 08:11:40;;;;;;;4.40;3.25;;;16.70;99.90;;;;;;5031964;28;20112;-74
2021/08/28 08:14:05;;;;;;;4.03;3.00;;;16.80;99.90;;;;;;5047203;28;20020;-75
2021/08/28 08:16:31;;;;;;;6.38;3.70;;;16.80;99.90;;;;;;5046165;28;20029;-75
2021/08/28 08:18:56;;;;;;;5.22;3.13;;;16.80;99.90;;;;;;5053492;28;20075;-75
2021/08/28 08:21:21;;;;;;;4.35;2.78;;;16.80;99.90;;;;;;5049772;28;20032;-75
2021/08/28 08:23:47;;;;;;;5.10;3.08;;;16.90;99.90;;;;;;5053282;28;20354;-75
2021/08/28 08:26:13;;;;;;;5.20;2.60;;;16.90;99.90;;;;;;5039473;28;20115;-75
2021/08/28 08:28:38;;;;;;;4.40;3.05;;;17.00;99.90;;;;;;5031803;28;20040;-75
2021/08/28 08:31:04;;;;;;;4.93;3.22;;;17.00;99.90;;;;;;5042233;28;20021;-75
2021/08/28 08:33:30;;;;;;;3.63;2.65;;;17.10;99.90;;;;;;5050061;28;20041;-75
2021/08/28 08:35:55;;;;;;;5.10;3.22;;;17.10;99.90;;;;;;5040817;28;20091;-75
2021/08/28 08:38:21;;;;;;;5.60;3.42;;;17.10;99.90;;;;;;5033089;28;20018;-75
2021/08/28 08:40:48;;;;;;;4.30;2.80;;;17.00;99.90;;;;;;5031334;28;20037;-75
2021/08/28 08:43:14;;;;;;;4.05;3.08;;;17.00;99.90;;;;;;5033053;28;20359;-75
2021/08/28 08:45:40;;;;;;;4.50;3.10;;;17.00;99.90;;;;;;5038790;28;20036;-75
2021/08/28 08:48:07;;;;;;;5.40;3.35;;;17.10;99.90;;;;;;5053022;28;20483;-75
2021/08/28 08:50:32;;;;;;;5.40;3.38;;;17.10;99.90;;;;;;5044683;28;20034;-75
2021/08/28 08:53:04;;;;;;;5.60;2.90;;;17.20;99.90;;;;;;5032480;28;20136;-74
2021/08/28 08:55:31;;;;;;;3.83;2.72;;;17.20;99.90;;;;;;5046162;28;20033;-75
2021/08/28 08:57:58;;;;;;;5.18;3.03;;;17.30;99.90;;;;;;5032858;28;20061;-75
2021/08/28 09:00:23;;;;;;;4.00;2.70;;;17.40;99.90;;;;;;5036406;28;20025;-75
2021/08/28 09:02:49;;;;;;;3.88;2.75;;;17.50;99.60;;;;;;5067873;28;20036;-75
2021/08/28 09:05:14;;;;;;;3.83;2.47;;;17.50;99.50;;;;;;5045172;28;20251;-75
2021/08/28 09:07:40;;;;;;;5.88;2.70;;;17.60;99.40;;;;;;5032307;28;20032;-76
2021/08/28 09:10:06;;;;;;;4.05;2.65;;;17.60;99.30;;;;;;5032663;28;20381;-75
2021/08/28 09:12:36;;;;;;;3.83;2.60;;;17.60;99.20;;;;;;5032242;28;20025;-75
2021/08/28 09:15:03;;;;;;;4.53;2.42;;;17.70;99.20;;;;;;5032138;28;20064;-75
2021/08/28 09:17:29;;;;;;;4.05;3.03;;;17.70;99.10;;;;;;5052325;28;20083;-75
2021/08/28 09:19:55;;;;;;;5.57;2.70;;;17.80;99.00;;;;;;5048593;28;20025;-76
2021/08/28 09:22:28;;;;;;;6.28;3.05;;;17.80;98.90;;;;;;5052116;28;20575;-76
2021/08/28 09:25:02;;;;;;;4.03;2.58;;;17.80;98.80;;;;;;5047654;28;20084;-75
2021/08/28 09:27:47;;;;;;;4.35;2.70;;;17.90;98.80;;;;;;5032760;28;20030;-75
2021/08/28 09:30:18;;;;;;;3.33;2.47;;;17.90;98.80;;;;;;5034411;28;20112;-76
2021/08/28 09:32:49;;;;;;;4.18;2.85;;;17.90;98.80;;;;;;5051596;28;20493;-75
2021/08/28 09:35:15;;;;;;;3.85;2.92;;;17.90;98.70;;;;;;5030467;28;20137;-76
2021/08/28 09:37:42;;;;;;;4.38;2.95;;;17.90;98.80;;;;;;5032216;28;20443;-75
2021/08/28 09:40:08;;;;;;;4.97;2.70;;;18.00;98.70;;;;;;5030241;28;20040;-75
2021/08/28 09:42:34;;;;;;;4.38;2.90;;;17.90;98.30;;;;;;5031306;28;20025;-76
2021/08/28 09:45:09;;;;;;;4.13;2.97;;;17.90;98.20;;;;;;5030812;28;20587;-76
2021/08/28 09:47:35;;;;;;;3.45;2.63;;;17.90;98.30;;;;;;5052140;28;20550;-76
2021/08/28 09:50:00;;;;;;;4.13;3.13;;;17.90;98.30;;;;;;5048936;28;20037;-76
2021/08/28 09:52:27;;;;;;;5.05;2.95;;;18.00;98.30;;;;;;5050121;28;20462;-75
2021/08/28 09:54:54;;;;;;;3.65;2.63;;;18.00;98.40;;;;;;5047255;28;20083;-75
2021/08/28 09:57:20;;;;;;;4.30;2.85;;;18.10;98.10;;;;;;5051719;28;20033;-75
2021/08/28 09:59:45;;;;;;;4.63;3.00;;;18.20;98.00;;;;;;5032441;28;20115;-76
2021/08/28 10:02:15;;;;;;;3.72;2.42;;;18.30;98.20;;;;;;5011914;28;20090;-76
2021/08/28 10:04:52;;;;;;;4.55;2.42;;;18.40;98.30;;;;;;5011454;28;20382;-76
2021/08/28 10:07:24;;;;;;;4.13;2.67;;;18.60;98.60;;;;;;5009596;28;20037;-75
2021/08/28 10:10:01;;;;;;;4.47;2.90;;;18.70;98.20;;;;;;5040601;28;20028;-76
2021/08/28 10:12:29;;;;;;;5.10;2.97;;;18.80;97.80;;;;;;5011893;28;20041;-76
2021/08/28 10:14:55;;;;;;;4.07;2.80;;;18.90;98.00;;;;;;5021183;28;20037;-76
2021/08/28 10:17:23;;;;;;;4.63;3.25;;;19.00;97.80;;;;;;5033363;28;20049;-76
2021/08/28 10:19:51;;;;;;;4.63;2.65;;;19.20;97.30;;;;;;5040149;28;20029;-77
2021/08/28 10:22:20;;;;;;;4.97;3.03;;;19.20;97.10;;;;;;5030606;28;20030;-75
2021/08/28 10:24:49;;;;;;;4.63;2.88;;;19.30;96.90;;;;;;5026077;28;20022;-79
2021/08/28 10:27:15;;;;;;;3.85;2.83;;;19.30;96.50;;;;;;5038440;28;20057;-78
2021/08/28 10:29:42;;;;;;;3.35;2.65;;;19.30;96.90;;;;;;5028176;28;20478;-74
2021/08/28 10:32:07;;;;;;;3.90;2.33;;;19.40;96.80;;;;;;5042906;28;20033;-75
2021/08/28 10:34:33;;;;;;;3.78;2.33;;;19.40;96.70;;;;;;5035663;28;20040;-76
2021/08/28 10:37:00;;;;;;;5.00;2.60;;;19.50;96.30;;;;;;5033222;28;20090;-76
2021/08/28 10:39:25;;;;;;;3.60;2.47;;;19.40;96.00;;;;;;5039579;28;20366;-74
2021/08/28 10:41:52;;;;;;;6.18;2.60;;;19.50;95.80;;;;;;5030842;28;20033;-71
2021/08/28 10:44:18;;;;;;;3.20;2.47;;;19.40;95.80;;;;;;5034526;28;20023;-74
2021/08/28 10:46:43;;;;;;;4.65;2.30;;;19.40;95.70;;;;;;5031378;28;20022;-81
2021/08/28 10:49:11;;;;;;;3.28;2.20;;;19.40;95.80;;;;;;5043243;28;20034;-78
2021/08/28 10:51:40;;;;;;;4.43;3.03;;;19.40;95.80;;;;;;5028258;28;20030;-78
2021/08/28 10:54:08;;;;;;;5.20;2.50;;;19.40;95.80;;;;;;5028223;28;20500;-77
2021/08/28 10:56:50;;;;;;;3.97;2.65;;;19.40;95.80;;;;;;5037007;28;20501;-78
2021/08/28 10:59:21;;;;;;;3.70;2.80;;;19.40;95.70;;;;;;5036941;28;20033;-78
2021/08/28 11:02:07;;;;;;;3.85;2.80;;;19.40;95.70;;;;;;5028654;28;20112;-79
2021/08/28 11:04:37;;;;;;;4.43;2.90;;;19.40;95.60;;;;;;5022539;28;20022;-79
2021/08/28 11:07:22;;;;;;;5.72;2.30;;;19.50;95.60;;;;;;5040773;28;20112;-79
2021/08/28 11:10:12;;;;;;;3.83;2.40;;;19.50;95.50;;;;;;5034932;28;20034;-79
2021/08/28 11:12:46;;;;;;;3.75;2.47;;;19.50;95.30;;;;;;5034615;28;20083;-79
2021/08/28 11:15:30;;;;;;;4.22;2.60;;;19.50;95.40;;;;;;5041431;28;20034;-78
2021/08/28 11:17:57;;;;;;;5.20;2.40;;;19.60;95.60;;;;;;5042578;28;20464;-78
2021/08/28 11:20:24;;;;;;;3.30;2.25;;;19.70;95.60;;;;;;5037941;28;20025;-79
2021/08/28 11:22:50;;;;;;;2.97;2.38;;;19.70;95.50;;;;;;5034287;28;20028;-77
2021/08/28 11:25:16;;;;;;;4.45;2.50;;;19.80;95.30;;;;;;5033711;28;20036;-79
2021/08/28 11:27:43;;;;;;;3.83;2.50;;;19.80;95.70;;;;;;5033301;28;20100;-74
2021/08/28 11:30:10;;;;;;;3.47;2.33;;;19.80;95.50;;;;;;5037175;28;20529;-75
2021/08/28 11:32:36;;;;;;;4.93;2.33;;;19.90;95.00;;;;;;5039802;28;20040;-75
2021/08/28 11:35:03;;;;;;;2.58;1.90;;;19.90;94.50;;;;;;5033663;28;20033;-77
2021/08/28 11:37:28;;;;;;;2.83;2.10;;;19.90;94.30;;;;;;5033600;28;20060;-79
2021/08/28 11:40:02;;;;;;;2.60;1.65;;;19.80;94.10;;;;;;5040296;28;20497;-80
2021/08/28 11:42:29;;;;;;;3.38;1.92;;;19.80;94.40;;;;;;5030548;28;20433;-79
2021/08/28 11:44:56;;;;;;;2.17;1.40;;;19.70;94.20;;;;;;5031491;28;20028;-81
2021/08/28 11:47:22;;;;;;;2.80;1.45;;;19.70;93.70;;;;;;5029854;28;20065;-80
2021/08/28 11:49:53;;;;;;;3.22;1.75;;;19.70;93.40;;;;;;5037709;28;20033;-80
2021/08/28 11:52:19;;;;;;;2.20;1.52;;;19.70;93.00;;;;;;5035462;28;20029;-80
2021/08/28 11:54:45;;;;;;;1.90;1.40;;;19.80;93.20;;;;;;5039588;28;20056;-79
2021/08/28 11:57:11;;;;;;;2.97;1.90;;;19.80;93.00;;;;;;5037556;28;20033;-80
2021/08/28 11:59:40;;;;;;;2.35;1.58;;;19.90;93.00;;;;;;5039560;28;20028;-80
2021/08/28 12:02:07;;;;;;;2.60;1.40;;;20.00;92.80;;;;;;5041251;28;20029;-74
2021/08/28 12:04:37;;;;;;;2.58;1.83;;;20.10;92.70;;;;;;5031446;28;20022;-75
2021/08/28 12:07:04;;;;;;;6.88;2.53;;;20.20;93.20;;;;;;5034790;28;20029;-75
2021/08/28 12:09:31;;;;;;;2.65;1.98;;;20.30;93.20;;;;;;5047587;28;20113;-75
2021/08/28 12:11:57;;;;;;;2.97;1.98;;;20.40;92.90;;;;;;5032317;28;20056;-75
2021/08/28 12:14:29;;;;;;;3.97;2.20;;;20.60;93.30;;;;;;5029814;28;20029;-74
2021/08/28 12:16:55;;;;;;;2.92;1.70;;;20.70;93.00;;;;;;5027999;28;20486;-74
2021/08/28 12:19:25;;;;;;;4.55;2.08;;;20.90;93.20;;;;;;5030201;28;20470;-75
2021/08/28 12:21:53;;;;;;;3.08;1.92;;;21.00;92.80;;;;;;5022650;28;20037;-75
2021/08/28 12:24:23;;;;;;;3.15;1.65;;;21.20;92.70;;;;;;5028202;28;20017;-75
2021/08/28 12:27:08;;;;;;;2.28;1.63;;;21.20;91.60;;;;;;5030678;28;20060;-75
2021/08/28 12:29:36;;;;;;;2.80;1.65;;;21.30;91.10;;;;;;5030307;28;20029;-75
2021/08/28 12:32:10;;;;;;;4.47;1.88;;;21.40;91.10;;;;;;5018929;28;20438;-75
2021/08/28 12:34:38;;;;;;;2.75;1.80;;;21.50;91.80;;;;;;5031668;28;20111;-74
2021/08/28 12:37:12;;;;;;;2.00;1.63;;;21.60;91.50;;;;;;5032448;28;20033;-75
2021/08/28 12:39:38;;;;;;;3.03;1.80;;;21.70;91.10;;;;;;5031312;28;20044;-76
2021/08/28 12:42:04;;;;;;;2.97;2.20;;;21.70;91.30;;;;;;5031472;28;20109;-75
2021/08/28 12:44:31;;;;;;;3.25;1.80;;;21.80;91.30;;;;;;5031684;28;20097;-75
2021/08/28 12:46:58;;;;;;;2.75;1.75;;;21.90;91.10;;;;;;5029828;28;20529;-75